Time;durP1;ratioP1;P1;durP2;ratioP2;P2;SDS_P1;SDS_P2;PMS_P1;PMS_P2;Temp;Humidity;BMP_temperature;BMP_pressure;BME280_temperature;BME280_humidity;BME280_pressure;Samples;Min_cycle;Max_cycle;Signal;HPM_P1;HPM_P2
2021/07/12 07:10:32;;;;;;;2.85;0.80;;;26.20;99.90;;;;;;4994229;28;20226;-77
2021/07/12 07:12:59;;;;;;;1.35;0.80;;;25.30;99.90;;;;;;4995862;28;20217;-76
2021/07/12 07:15:25;;;;;;;1.35;0.90;;;25.30;99.90;;;;;;4993460;28;20237;-78
2021/07/12 07:17:54;;;;;;;1.35;0.80;;;25.30;99.90;;;;;;4976257;28;20214;-78
2021/07/12 07:20:21;;;;;;;3.42;0.82;;;25.10;99.90;;;;;;4976772;28;20235;-79
2021/07/12 07:22:48;;;;;;;0.98;0.80;;;24.80;99.90;;;;;;4976698;28;20263;-77
2021/07/12 07:25:15;;;;;;;1.27;0.80;;;24.90;99.90;;;;;;4976670;28;20207;-81
2021/07/12 07:27:44;;;;;;;1.45;0.90;;;25.20;99.90;;;;;;4977288;28;20212;-80
2021/07/12 07:30:12;;;;;;;0.90;0.73;;;25.20;99.90;;;;;;4976809;28;20213;-78
2021/07/12 07:32:40;;;;;;;1.00;0.70;;;25.50;99.90;;;;;;4976577;28;20218;-79
2021/07/12 07:35:08;;;;;;;2.58;0.80;;;25.50;99.90;;;;;;4976441;28;20218;-77
2021/07/12 07:37:36;;;;;;;1.55;0.70;;;25.50;99.90;;;;;;4976288;28;20211;-77
2021/07/12 07:40:07;;;;;;;1.45;0.80;;;25.40;99.90;;;;;;4976296;28;20239;-79
2021/07/12 07:42:33;;;;;;;0.95;0.80;;;25.80;99.90;;;;;;4976349;28;20204;-75
2021/07/12 07:45:02;;;;;;;1.17;0.80;;;26.40;99.90;;;;;;4976177;28;20213;-79
2021/07/12 07:47:29;;;;;;;2.05;0.70;;;27.40;99.90;;;;;;4976251;28;20322;-77
2021/07/12 07:49:55;;;;;;;1.20;0.70;;;28.50;99.90;;;;;;4976036;28;20223;-76
2021/07/12 07:52:22;;;;;;;1.23;0.70;;;29.10;99.90;;;;;;4976523;28;20207;-76
2021/07/12 07:54:50;;;;;;;2.60;0.65;;;29.50;99.90;;;;;;4976142;28;20669;-76
2021/07/12 07:57:17;;;;;;;1.02;0.70;;;29.60;99.90;;;;;;4976136;28;20338;-77
2021/07/12 07:59:44;;;;;;;1.38;0.80;;;29.20;99.90;;;;;;4975789;28;20235;-77
2021/07/12 08:02:12;;;;;;;1.10;0.75;;;29.00;99.90;;;;;;4976024;28;20211;-76
2021/07/12 08:04:39;;;;;;;29.65;7.65;;;28.10;99.90;;;;;;4975928;28;20208;-77
2021/07/12 08:07:07;;;;;;;21.13;5.18;;;27.80;99.90;;;;;;4976219;28;20238;-76
2021/07/12 08:09:34;;;;;;;4.60;1.40;;;27.80;99.90;;;;;;4975923;28;20238;-77
2021/07/12 08:12:01;;;;;;;38.17;8.35;;;27.80;99.90;;;;;;4975710;28;20578;-76
2021/07/12 08:14:28;;;;;;;2.42;1.05;;;27.60;99.90;;;;;;4975631;28;20210;-77
2021/07/12 08:16:54;;;;;;;0.80;0.70;;;27.30;99.90;;;;;;4975488;28;20238;-77
2021/07/12 08:19:23;;;;;;;0.90;0.70;;;27.10;99.90;;;;;;4975873;28;20214;-78
2021/07/12 08:21:50;;;;;;;1.83;0.88;;;27.60;99.90;;;;;;4975882;28;20207;-77
2021/07/12 08:24:17;;;;;;;2.38;1.05;;;28.00;99.90;;;;;;4975591;28;20212;-76
2021/07/12 08:26:44;;;;;;;1.20;0.80;;;28.20;99.90;;;;;;4975434;28;20227;-77
2021/07/12 08:29:10;;;;;;;0.90;0.70;;;28.30;99.90;;;;;;4975601;28;20214;-78
2021/07/12 08:31:37;;;;;;;1.20;0.90;;;28.90;99.90;;;;;;4975541;28;20234;-77
2021/07/12 08:34:04;;;;;;;1.98;0.80;;;28.90;99.90;;;;;;4975696;28;20204;-77
2021/07/12 08:36:32;;;;;;;2.25;1.00;;;29.20;99.90;;;;;;4975503;28;20238;-77
2021/07/12 08:38:59;;;;;;;1.35;1.00;;;30.10;99.90;;;;;;4975278;28;20685;-77
2021/07/12 08:41:26;;;;;;;1.10;0.80;;;30.20;99.90;;;;;;4975263;28;20598;-78
2021/07/12 08:43:53;;;;;;;1.73;0.90;;;29.60;99.30;;;;;;4975356;28;20218;-78
2021/07/12 08:46:21;;;;;;;0.82;0.73;;;29.70;99.70;;;;;;4975055;28;20306;-78
2021/07/12 08:48:47;;;;;;;1.00;0.80;;;29.90;99.80;;;;;;4975207;28;20211;-78
2021/07/12 08:51:15;;;;;;;1.65;0.90;;;29.50;99.90;;;;;;4975166;28;20217;-78
2021/07/12 08:53:43;;;;;;;1.02;0.65;;;28.60;99.90;;;;;;4975051;28;20203;-78
2021/07/12 08:56:10;;;;;;;0.63;0.60;;;28.90;99.90;;;;;;4974939;28;20238;-79
2021/07/12 08:58:36;;;;;;;2.50;0.70;;;28.50;99.90;;;;;;4974869;28;20207;-77
2021/07/12 09:01:05;;;;;;;1.02;0.88;;;28.70;99.90;;;;;;4975198;28;20234;-78
2021/07/12 09:03:34;;;;;;;0.70;0.55;;;28.70;99.90;;;;;;4974883;28;20559;-78
2021/07/12 09:06:04;;;;;;;2.40;0.90;;;28.60;99.30;;;;;;4975004;28;20720;-79
2021/07/12 09:08:46;;;;;;;1.30;1.02;;;28.60;99.70;;;;;;4974919;28;20215;-80
2021/07/12 09:11:16;;;;;;;1.30;0.90;;;28.10;99.90;;;;;;4974636;28;20236;-79
2021/07/12 09:13:50;;;;;;;1.00;0.80;;;27.60;99.90;;;;;;4975260;28;20211;-79
2021/07/12 09:16:32;;;;;;;1.10;0.77;;;27.50;99.90;;;;;;4975028;28;20669;-78
2021/07/12 09:19:18;;;;;;;1.08;0.70;;;27.80;99.90;;;;;;4974637;28;20217;-79
2021/07/12 09:21:48;;;;;;;0.82;0.70;;;27.80;99.80;;;;;;4974131;28;20341;-81
2021/07/12 09:24:26;;;;;;;0.60;0.60;;;27.80;99.90;;;;;;4975472;28;20297;-79
2021/07/12 09:26:56;;;;;;;2.50;0.70;;;28.00;99.90;;;;;;4974233;28;20231;-78
2021/07/12 09:29:26;;;;;;;1.48;0.80;;;27.80;99.90;;;;;;4976660;28;20565;-78
2021/07/12 09:31:53;;;;;;;0.70;0.70;;;27.70;99.90;;;;;;4975499;28;20749;-78
2021/07/12 09:34:20;;;;;;;1.58;0.90;;;27.90;99.80;;;;;;4975443;28;20265;-79
2021/07/12 09:36:48;;;;;;;1.05;0.60;;;27.80;99.90;;;;;;4974695;28;20223;-78
2021/07/12 09:39:35;;;;;;;0.80;0.70;;;27.80;99.90;;;;;;4974875;28;20298;-77
2021/07/12 09:42:05;;;;;;;1.10;0.80;;;27.70;99.90;;;;;;4974126;28;20215;-78
2021/07/12 09:44:34;;;;;;;1.27;0.70;;;27.60;99.90;;;;;;4974068;28;20658;-78
2021/07/12 09:47:07;;;;;;;1.52;0.70;;;27.60;99.90;;;;;;4974414;28;20301;-78
2021/07/12 09:49:35;;;;;;;0.88;0.70;;;27.40;99.90;;;;;;4974232;28;20662;-78
2021/07/12 09:52:05;;;;;;;1.25;0.85;;;26.90;99.90;;;;;;4974357;28;20211;-80
2021/07/12 09:54:35;;;;;;;0.85;0.70;;;26.40;99.90;;;;;;4975026;28;20207;-78
2021/07/12 09:57:18;;;;;;;1.08;0.70;;;25.50;99.90;;;;;;4974583;28;20796;-81
2021/07/12 09:59:54;;;;;;;2.67;0.82;;;25.50;99.90;;;;;;4974173;28;20741;-78
2021/07/12 10:02:22;;;;;;;1.25;0.80;;;25.20;99.90;;;;;;4974350;28;20729;-79
2021/07/12 10:04:53;;;;;;;1.52;1.02;;;25.50;99.90;;;;;;4974242;28;20210;-82
2021/07/12 10:07:20;;;;;;;1.25;0.80;;;25.30;99.90;;;;;;4974154;28;20231;-78
2021/07/12 10:09:47;;;;;;;1.42;1.10;;;25.30;99.90;;;;;;4974105;28;20565;-78
2021/07/12 10:12:16;;;;;;;1.38;0.70;;;25.40;99.90;;;;;;4974151;28;20207;-78
2021/07/12 10:14:43;;;;;;;1.15;1.02;;;25.60;99.90;;;;;;4974239;28;20207;-78
2021/07/12 10:17:10;;;;;;;0.75;0.75;;;25.80;99.90;;;;;;4973903;28;20250;-78
2021/07/12 10:19:37;;;;;;;1.35;0.73;;;26.00;99.90;;;;;;4973971;28;20257;-78
2021/07/12 10:22:05;;;;;;;1.05;0.65;;;26.00;99.90;;;;;;4973689;28;20239;-78
2021/07/12 10:24:37;;;;;;;2.03;0.70;;;26.00;99.90;;;;;;4974125;28;20589;-78
2021/07/12 10:27:05;;;;;;;1.33;0.80;;;26.30;99.90;;;;;;4973845;28;20227;-78
2021/07/12 10:29:35;;;;;;;1.30;0.80;;;26.70;99.90;;;;;;4974291;28;20211;-79
2021/07/12 10:32:06;;;;;;;1.92;0.90;;;26.80;99.90;;;;;;4973897;28;20215;-78
2021/07/12 10:34:36;;;;;;;1.63;0.98;;;26.60;99.90;;;;;;4973552;28;20218;-78
2021/07/12 10:37:20;;;;;;;1.20;0.93;;;26.40;99.90;;;;;;4973485;28;20622;-80
2021/07/12 10:40:09;;;;;;;1.30;1.00;;;26.50;99.90;;;;;;4972234;28;20210;-78
2021/07/12 10:42:48;;;;;;;1.27;0.90;;;26.30;99.90;;;;;;4976692;28;20222;-78
2021/07/12 10:45:18;;;;;;;1.73;0.80;;;26.30;99.90;;;;;;4977129;28;20214;-79
2021/07/12 10:47:46;;;;;;;1.30;0.90;;;26.30;99.90;;;;;;4976676;28;20203;-79
2021/07/12 10:50:39;;;;;;;0.90;0.75;;;26.00;99.90;;;;;;4977356;28;20250;-78
2021/07/12 10:53:40;;;;;;;1.10;0.70;;;25.60;99.90;;;;;;4976938;28;20669;-78
2021/07/12 10:56:18;;;;;;;0.75;0.70;;;25.80;99.90;;;;;;4977387;28;20314;-78
2021/07/12 10:58:46;;;;;;;0.80;0.70;;;26.10;99.90;;;;;;4977235;28;20290;-78
2021/07/12 11:01:33;;;;;;;0.90;0.80;;;26.20;99.90;;;;;;4976563;28;20593;-78
2021/07/12 11:04:00;;;;;;;0.70;0.70;;;26.00;99.90;;;;;;4972901;28;20207;-77
2021/07/12 11:06:47;;;;;;;1.77;0.60;;;26.10;99.90;;;;;;4976508;28;20583;-79
2021/07/12 11:09:13;;;;;;;0.73;0.73;;;26.20;99.90;;;;;;4973320;28;20211;-78
2021/07/12 11:11:40;;;;;;;0.82;0.65;;;26.30;99.90;;;;;;4976197;28;20195;-78
2021/07/12 11:14:08;;;;;;;0.65;0.65;;;26.20;99.90;;;;;;4975630;28;20211;-78
2021/07/12 11:16:42;;;;;;;2.75;0.75;;;26.00;99.90;;;;;;4973745;28;20227;-80
2021/07/12 11:19:20;;;;;;;2.38;0.80;;;25.90;99.90;;;;;;4974185;28;20218;-78
2021/07/12 11:21:47;;;;;;;2.22;0.68;;;25.70;99.90;;;;;;4976039;28;20223;-79
2021/07/12 11:24:18;;;;;;;0.90;0.70;;;25.60;99.90;;;;;;4975856;28;20205;-78
2021/07/12 11:26:55;;;;;;;2.47;0.85;;;25.30;99.90;;;;;;4975096;28;20230;-79
2021/07/12 11:29:32;;;;;;;0.70;0.65;;;25.00;99.90;;;;;;4956362;29;20212;-79
2021/07/12 11:32:10;;;;;;;0.65;0.60;;;25.00;99.90;;;;;;4956212;29;20228;-78
2021/07/12 11:34:39;;;;;;;1.20;0.82;;;25.00;99.90;;;;;;4956892;29;20218;-78
2021/07/12 11:37:09;;;;;;;1.58;0.85;;;25.00;99.90;;;;;;4957694;28;20234;-79
2021/07/12 11:39:38;;;;;;;0.80;0.70;;;25.20;99.90;;;;;;4957332;29;20239;-79
2021/07/12 11:42:15;;;;;;;1.48;1.00;;;25.40;99.90;;;;;;4957098;29;20246;-78
2021/07/12 11:44:50;;;;;;;2.60;0.82;;;25.40;99.90;;;;;;4973042;28;20199;-78
2021/07/12 11:47:22;;;;;;;0.88;0.70;;;25.40;99.90;;;;;;4974640;28;20222;-79
2021/07/12 11:49:50;;;;;;;2.38;0.90;;;25.30;99.90;;;;;;4976535;28;20673;-78
2021/07/12 11:52:17;;;;;;;2.05;0.88;;;25.30;99.90;;;;;;4978235;28;20677;-78
2021/07/12 11:54:44;;;;;;;0.65;0.65;;;25.50;99.90;;;;;;4976904;28;20536;-80
2021/07/12 11:57:14;;;;;;;2.10;0.82;;;25.50;99.90;;;;;;4976651;28;20698;-80
2021/07/12 11:59:42;;;;;;;0.93;0.80;;;25.60;99.90;;;;;;4976268;28;20214;-77
2021/07/12 12:02:11;;;;;;;1.30;0.90;;;25.70;99.90;;;;;;4976254;28;20238;-79
2021/07/12 12:04:57;;;;;;;2.88;1.00;;;25.80;99.90;;;;;;4976525;28;20277;-79
2021/07/12 12:07:36;;;;;;;1.10;0.80;;;25.70;99.90;;;;;;4976049;28;20227;-78
2021/07/12 12:10:10;;;;;;;2.22;0.98;;;26.20;99.90;;;;;;4976088;28;20215;-78
2021/07/12 12:12:40;;;;;;;1.55;0.80;;;26.40;99.90;;;;;;4975873;28;20211;-79
2021/07/12 12:15:10;;;;;;;0.88;0.80;;;26.50;99.90;;;;;;4976175;28;20685;-79
2021/07/12 12:17:41;;;;;;;2.10;1.00;;;26.40;99.90;;;;;;4976025;28;20213;-78
2021/07/12 12:20:28;;;;;;;2.25;0.95;;;26.70;99.90;;;;;;4975853;28;20203;-78
2021/07/12 12:23:05;;;;;;;1.25;0.80;;;26.90;99.90;;;;;;4975668;28;20211;-79
2021/07/12 12:25:35;;;;;;;1.15;0.85;;;27.00;99.90;;;;;;4975352;28;20223;-77
2021/07/12 12:28:03;;;;;;;2.42;0.80;;;26.90;99.90;;;;;;4975440;28;20218;-79
2021/07/12 12:30:30;;;;;;;1.23;0.85;;;27.10;99.90;;;;;;4975621;28;20295;-78
2021/07/12 12:32:58;;;;;;;0.90;0.80;;;26.80;99.90;;;;;;4975743;28;20610;-79
2021/07/12 12:35:28;;;;;;;2.47;0.90;;;26.60;99.90;;;;;;4975182;28;20214;-78
2021/07/12 12:37:55;;;;;;;1.77;0.60;;;26.60;99.90;;;;;;4975506;28;20210;-78
2021/07/12 12:40:24;;;;;;;1.20;0.70;;;26.80;99.90;;;;;;4975084;28;20203;-79
2021/07/12 12:42:53;;;;;;;1.02;0.88;;;27.10;99.90;;;;;;4972681;28;20685;-81
2021/07/12 12:45:25;;;;;;;1.10;0.75;;;27.20;99.90;;;;;;4975386;28;20291;-85
2021/07/12 12:47:51;;;;;;;2.55;0.80;;;27.30;99.90;;;;;;4976441;28;20211;-87
2021/07/12 12:50:20;;;;;;;0.98;0.80;;;26.90;99.90;;;;;;4975798;28;20207;-87
2021/07/12 12:52:48;;;;;;;1.20;1.00;;;26.80;99.90;;;;;;4976451;28;20298;-88
2021/07/12 12:55:15;;;;;;;1.45;1.00;;;26.60;99.90;;;;;;4975289;28;20207;-86
2021/07/12 12:57:47;;;;;;;1.23;0.90;;;26.70;99.90;;;;;;4976488;28;20667;-84
2021/07/12 13:00:16;;;;;;;1.15;0.95;;;26.50;99.90;;;;;;4975431;28;20211;-87
2021/07/12 13:02:44;;;;;;;0.85;0.80;;;26.40;99.90;;;;;;4974119;28;20230;-85
2021/07/12 13:05:17;;;;;;;0.70;0.70;;;26.10;99.90;;;;;;4975399;28;20294;-84
2021/07/12 13:07:51;;;;;;;1.55;0.68;;;26.10;99.90;;;;;;4975248;28;20273;-84
2021/07/12 13:10:22;;;;;;;0.98;0.70;;;25.60;99.90;;;;;;4974697;28;20335;-86
2021/07/12 13:12:51;;;;;;;1.25;0.80;;;25.10;99.90;;;;;;4974716;28;20716;-85
2021/07/12 13:15:20;;;;;;;1.02;0.65;;;24.90;99.90;;;;;;4974764;28;20219;-81
2021/07/12 13:17:49;;;;;;;2.60;0.90;;;24.80;99.90;;;;;;4974961;28;20215;-84
2021/07/12 13:20:20;;;;;;;1.08;0.77;;;24.70;99.90;;;;;;4969582;28;20203;-77
2021/07/12 13:22:51;;;;;;;0.70;0.60;;;24.90;99.90;;;;;;4973936;28;20234;-80
2021/07/12 13:25:20;;;;;;;1.55;0.60;;;24.80;99.90;;;;;;4973275;28;20570;-80
2021/07/12 13:27:53;;;;;;;0.95;0.80;;;24.90;99.90;;;;;;4972042;28;20704;-78
2021/07/12 13:30:21;;;;;;;0.70;0.60;;;25.10;99.90;;;;;;4972358;28;20215;-84
2021/07/12 13:32:49;;;;;;;1.85;0.70;;;25.10;99.90;;;;;;4973895;28;20219;-87
2021/07/12 13:35:18;;;;;;;1.20;0.85;;;25.10;99.90;;;;;;4973350;28;20215;-84
2021/07/12 13:37:46;;;;;;;1.40;0.80;;;24.90;99.90;;;;;;4974857;28;20214;-90
2021/07/12 13:40:15;;;;;;;1.00;0.80;;;24.90;99.90;;;;;;4974255;28;20222;-88
2021/07/12 13:42:43;;;;;;;2.28;0.90;;;24.90;99.90;;;;;;4973564;28;20590;-88
2021/07/12 13:45:11;;;;;;;1.00;0.75;;;24.80;99.90;;;;;;4973914;28;20207;-84
2021/07/12 13:47:38;;;;;;;1.02;0.77;;;24.70;99.90;;;;;;4973369;28;20211;-87
2021/07/12 13:50:07;;;;;;;1.13;0.77;;;24.70;99.90;;;;;;4972461;28;20211;-91
2021/07/12 13:52:34;;;;;;;1.73;0.85;;;24.80;99.90;;;;;;4973105;28;20662;-82
2021/07/12 13:55:01;;;;;;;0.93;0.70;;;24.90;99.90;;;;;;4973175;28;20212;-81
2021/07/12 13:57:29;;;;;;;1.02;0.93;;;24.80;99.90;;;;;;4972874;28;20223;-78
2021/07/12 13:59:57;;;;;;;1.00;0.80;;;24.90;99.90;;;;;;4972524;28;20207;-75
